Time,TemperatureF,DewpointF,PressureIn,WindDirection,WindDirectionDegrees,WindSpeedMPH,WindSpeedGustMPH,Humidity,HourlyPrecipIn,Conditions,Clouds,dailyrainin,SoftwareType,DateUTC
2013-07-12 00:01:00,68.6,68.3,29.97,East,101,1.0,1.0,99,0.00,,,0.00,Wunderground v.1.15,2013-07-12 04:01:00,
2013-07-12 00:02:00,68.6,68.3,29.97,East,101,1.0,1.0,99,0.00,,,0.00,Wunderground v.1.15,2013-07-12 04:02:00,
2013-07-12 00:07:00,68.8,68.5,29.98,East,101,0.0,1.0,99,0.00,,,0.00,Wunderground v.1.15,2013-07-12 04:07:00,
2013-07-12 00:08:00,68.8,68.5,29.97,East,101,0.0,1.0,99,0.00,,,0.00,Wunderground v.1.15,2013-07-12 04:08:00,
2013-07-12 00:13:00,68.7,68.4,29.97,East,101,0.0,0.0,99,0.00,,,0.00,Wunderground v.1.15,2013-07-12 04:13:00,
2013-07-12 00:18:00,68.6,68.3,29.97,East,101,0.0,4.0,99,0.00,,,0.00,Wunderground v.1.15,2013-07-12 04:18:00,
2013-07-12 00:23:00,68.9,68.6,29.97,East,92,2.0,4.0,99,0.00,,,0.00,Wunderground v.1.15,2013-07-12 04:23:00,
2013-07-12 00:28:00,69.0,68.7,29.97,East,92,3.0,4.0,99,0.00,,,0.00,Wunderground v.1.15,2013-07-12 04:28:00,
2013-07-12 00:33:00,68.9,68.6,29.97,ESE,112,2.0,5.0,99,0.00,,,0.00,Wunderground v.1.15,2013-07-12 04:33:00,
2013-07-12 00:38:00,68.8,68.5,29.96,ESE,117,2.0,5.0,99,0.00,,,0.00,Wunderground v.1.15,2013-07-12 04:38:00,
2013-07-12 00:44:00,68.7,68.1,29.95,SSE,151,2.0,3.0,98,0.00,,,0.00,Wunderground v.1.15,2013-07-12 04:44:00,
2013-07-12 00:49:00,68.6,68.0,29.96,SSE,151,1.0,3.0,98,0.00,,,0.00,Wunderground v.1.15,2013-07-12 04:49:00,
2013-07-12 00:54:00,68.6,68.0,29.96,SW,220,1.0,2.0,98,0.00,,,0.00,Wunderground v.1.15,2013-07-12 04:54:00,
2013-07-12 00:59:00,68.5,67.9,29.96,SW,220,1.0,2.0,98,0.00,,,0.00,Wunderground v.1.15,2013-07-12 04:59:00,
2013-07-12 01:04:00,68.4,67.8,29.96,SW,221,1.0,3.0,98,0.00,,,0.00,Wunderground v.1.15,2013-07-12 05:04:00,
2013-07-12 01:09:00,68.3,67.7,29.96,SW,221,1.0,3.0,98,0.00,,,0.00,Wunderground v.1.15,2013-07-12 05:09:00,
2013-07-12 01:15:00,68.2,67.9,29.95,SW,221,0.0,2.0,99,0.00,,,0.00,Wunderground v.1.15,2013-07-12 05:15:00,
2013-07-12 01:20:00,68.1,67.8,29.96,SW,221,0.0,2.0,99,0.00,,,0.00,Wunderground v.1.15,2013-07-12 05:20:00,
2013-07-12 01:25:00,68.1,67.8,29.96,SW,221,0.0,2.0,99,0.00,,,0.00,Wunderground v.1.15,2013-07-12 05:25:00,
2013-07-12 01:30:00,68.0,67.7,29.95,SW,221,0.0,2.0,99,0.00,,,0.00,Wunderground v.1.15,2013-07-12 05:30:00,
2013-07-12 01:35:00,67.9,67.6,29.95,SW,221,0.0,2.0,99,0.00,,,0.00,Wunderground v.1.15,2013-07-12 05:35:00,
2013-07-12 01:41:00,67.7,67.4,29.95,SW,221,0.0,2.0,99,0.00,,,0.00,Wunderground v.1.15,2013-07-12 05:41:00,
2013-07-12 01:46:00,67.6,67.3,29.95,SW,221,0.0,2.0,99,0.00,,,0.00,Wunderground v.1.15,2013-07-12 05:46:00,
2013-07-12 01:51:00,67.5,67.2,29.96,SW,221,0.0,2.0,99,0.00,,,0.00,Wunderground v.1.15,2013-07-12 05:51:00,
2013-07-12 01:56:00,67.5,67.2,29.96,SW,221,0.0,2.0,99,0.00,,,0.00,Wunderground v.1.15,2013-07-12 05:56:00,
2013-07-12 02:02:00,67.4,67.1,29.96,SW,221,0.0,2.0,99,0.00,,,0.00,Wunderground v.1.15,2013-07-12 06:02:00,
2013-07-12 02:07:00,67.3,67.0,29.96,SW,221,0.0,2.0,99,0.00,,,0.00,Wunderground v.1.15,2013-07-12 06:07:00,
2013-07-12 02:12:00,67.4,67.1,29.96,SW,221,0.0,2.0,99,0.00,,,0.00,Wunderground v.1.15,2013-07-12 06:12:00,
2013-07-12 02:18:00,67.3,67.0,29.96,SW,221,0.0,2.0,99,0.00,,,0.00,Wunderground v.1.15,2013-07-12 06:18:00,
2013-07-12 02:23:00,67.2,66.9,29.96,SW,221,0.0,2.0,99,0.00,,,0.00,Wunderground v.1.15,2013-07-12 06:23:00,
2013-07-12 02:28:00,67.1,66.8,29.96,SW,221,0.0,2.0,99,0.00,,,0.00,Wunderground v.1.15,2013-07-12 06:28:00,
2013-07-12 02:34:00,67.2,66.9,29.96,SW,221,0.0,2.0,99,0.00,,,0.00,Wunderground v.1.15,2013-07-12 06:34:00,
2013-07-12 02:39:00,67.3,67.0,29.96,SW,221,0.0,2.0,99,0.00,,,0.00,Wunderground v.1.15,2013-07-12 06:39:00,
2013-07-12 02:44:00,67.3,67.0,29.96,SW,221,0.0,2.0,99,0.00,,,0.00,Wunderground v.1.15,2013-07-12 06:44:00,
2013-07-12 02:49:00,67.3,67.0,29.95,SW,221,0.0,2.0,99,0.00,,,0.00,Wunderground v.1.15,2013-07-12 06:49:00,
2013-07-12 02:54:00,67.2,66.9,29.95,SW,221,0.0,2.0,99,0.00,,,0.00,Wunderground v.1.15,2013-07-12 06:54:00,
2013-07-12 03:00:00,67.1,66.8,29.95,SW,221,0.0,2.0,99,0.00,,,0.00,Wunderground v.1.15,2013-07-12 07:00:00,
2013-07-12 03:05:00,67.0,66.7,29.95,SW,221,0.0,2.0,99,0.00,,,0.00,Wunderground v.1.15,2013-07-12 07:05:00,
2013-07-12 03:10:00,66.8,66.5,29.95,SW,214,1.0,2.0,99,0.00,,,0.00,Wunderground v.1.15,2013-07-12 07:10:00,
2013-07-12 03:15:00,66.6,66.3,29.95,SW,214,1.0,2.0,99,0.00,,,0.00,Wunderground v.1.15,2013-07-12 07:15:00,
2013-07-12 03:20:00,66.7,66.4,29.95,SW,214,1.0,4.0,99,0.00,,,0.00,Wunderground v.1.15,2013-07-12 07:20:00,
2013-07-12 03:25:00,66.7,66.4,29.95,SW,214,1.0,4.0,99,0.00,,,0.00,Wunderground v.1.15,2013-07-12 07:25:00,
2013-07-12 03:31:00,66.7,66.4,29.95,SW,214,1.0,2.0,99,0.00,,,0.00,Wunderground v.1.15,2013-07-12 07:31:00,
2013-07-12 03:36:00,66.7,66.4,29.95,SW,214,0.0,2.0,99,0.00,,,0.00,Wunderground v.1.15,2013-07-12 07:36:00,
2013-07-12 03:41:00,66.7,66.4,29.95,SW,214,0.0,2.0,99,0.00,,,0.00,Wunderground v.1.15,2013-07-12 07:41:00,
2013-07-12 03:46:00,66.7,66.4,29.95,SW,214,0.0,2.0,99,0.00,,,0.00,Wunderground v.1.15,2013-07-12 07:46:00,
2013-07-12 03:51:00,66.7,66.7,29.95,SW,214,0.0,2.0,100,0.00,,,0.00,Wunderground v.1.15,2013-07-12 07:51:00,
2013-07-12 03:53:00,66.7,66.7,29.94,SW,214,0.0,2.0,100,0.00,,,0.00,Wunderground v.1.15,2013-07-12 07:53:00,
2013-07-12 03:58:00,66.7,66.7,29.94,SW,214,1.0,2.0,100,0.00,,,0.00,Wunderground v.1.15,2013-07-12 07:58:00,
2013-07-12 04:03:00,66.7,66.7,29.94,SW,214,0.0,2.0,100,0.00,,,0.00,Wunderground v.1.15,2013-07-12 08:03:00,
2013-07-12 04:09:00,66.6,66.6,29.94,SW,214,0.0,2.0,100,0.00,,,0.00,Wunderground v.1.15,2013-07-12 08:09:00,
2013-07-12 04:14:00,66.6,66.6,29.94,SW,214,0.0,2.0,100,0.00,,,0.00,Wunderground v.1.15,2013-07-12 08:14:00,
2013-07-12 04:19:00,66.5,66.5,29.94,SW,214,0.0,2.0,100,0.00,,,0.00,Wunderground v.1.15,2013-07-12 08:19:00,
2013-07-12 04:24:00,66.6,66.6,29.94,SW,214,0.0,2.0,100,0.00,,,0.00,Wunderground v.1.15,2013-07-12 08:24:00,
2013-07-12 04:29:00,66.6,66.6,29.94,SW,214,0.0,2.0,100,0.00,,,0.00,Wunderground v.1.15,2013-07-12 08:29:00,
2013-07-12 04:35:00,66.6,66.6,29.94,SW,214,1.0,2.0,100,0.00,,,0.00,Wunderground v.1.15,2013-07-12 08:35:00,
2013-07-12 04:40:00,66.5,66.5,29.94,SW,214,1.0,2.0,100,0.00,,,0.00,Wunderground v.1.15,2013-07-12 08:40:00,
2013-07-12 04:45:00,66.5,66.5,29.94,SW,214,1.0,2.0,100,0.00,,,0.00,Wunderground v.1.15,2013-07-12 08:45:00,
2013-07-12 04:50:00,66.5,66.5,29.94,SW,214,1.0,1.0,100,0.00,,,0.00,Wunderground v.1.15,2013-07-12 08:50:00,
2013-07-12 04:55:00,66.5,66.5,29.94,SW,214,0.0,2.0,100,0.00,,,0.00,Wunderground v.1.15,2013-07-12 08:55:00,
2013-07-12 05:01:00,66.5,66.5,29.94,SW,214,0.0,2.0,100,0.00,,,0.00,Wunderground v.1.15,2013-07-12 09:01:00,
2013-07-12 05:06:00,66.5,66.5,29.94,SW,214,0.0,2.0,100,0.00,,,0.00,Wunderground v.1.15,2013-07-12 09:06:00,
2013-07-12 05:11:00,66.5,66.5,29.95,SW,214,0.0,2.0,100,0.00,,,0.00,Wunderground v.1.15,2013-07-12 09:11:00,
2013-07-12 05:16:00,66.5,66.5,29.95,SW,214,0.0,2.0,100,0.00,,,0.00,Wunderground v.1.15,2013-07-12 09:16:00,
2013-07-12 05:22:00,66.5,66.5,29.95,SW,214,0.0,2.0,100,0.00,,,0.00,Wunderground v.1.15,2013-07-12 09:22:00,
2013-07-12 05:28:00,66.4,66.4,29.95,SW,214,0.0,2.0,100,0.00,,,0.00,Wunderground v.1.15,2013-07-12 09:28:00,
2013-07-12 05:33:00,66.5,66.5,29.95,SW,214,0.0,2.0,100,0.00,,,0.00,Wunderground v.1.15,2013-07-12 09:33:00,
2013-07-12 05:38:00,66.4,66.4,29.95,SW,214,0.0,2.0,100,0.00,,,0.00,Wunderground v.1.15,2013-07-12 09:38:00,
2013-07-12 05:43:00,66.4,66.4,29.95,SW,214,0.0,2.0,100,0.00,,,0.00,Wunderground v.1.15,2013-07-12 09:43:00,
2013-07-12 05:48:00,66.3,66.3,29.95,SW,214,1.0,2.0,100,0.00,,,0.00,Wunderground v.1.15,2013-07-12 09:48:00,
2013-07-12 05:53:00,66.3,66.3,29.95,SW,214,1.0,2.0,100,0.00,,,0.00,Wunderground v.1.15,2013-07-12 09:53:00,
2013-07-12 05:59:00,66.3,66.3,29.95,SW,214,1.0,2.0,100,0.00,,,0.00,Wunderground v.1.15,2013-07-12 09:59:00,
2013-07-12 06:04:00,66.2,66.2,29.95,SW,214,1.0,2.0,100,0.00,,,0.00,Wunderground v.1.15,2013-07-12 10:04:00,
2013-07-12 06:09:00,66.1,66.1,29.95,SW,214,1.0,2.0,100,0.00,,,0.00,Wunderground v.1.15,2013-07-12 10:09:00,
2013-07-12 06:15:00,66.1,66.1,29.95,SW,214,1.0,2.0,100,0.00,,,0.00,Wunderground v.1.15,2013-07-12 10:15:00,
2013-07-12 06:20:00,66.0,66.0,29.95,SW,214,1.0,1.0,100,0.00,,,0.00,Wunderground v.1.15,2013-07-12 10:20:00,
2013-07-12 06:25:00,66.0,66.0,29.96,SW,214,0.0,2.0,100,0.00,,,0.00,Wunderground v.1.15,2013-07-12 10:25:00,
2013-07-12 06:30:00,66.0,66.0,29.95,SW,214,0.0,2.0,100,0.00,,,0.00,Wunderground v.1.15,2013-07-12 10:30:00,
2013-07-12 06:36:00,66.1,66.1,29.95,SW,214,0.0,2.0,100,0.00,,,0.00,Wunderground v.1.15,2013-07-12 10:36:00,
2013-07-12 06:42:00,66.1,66.1,29.95,SW,214,0.0,2.0,100,0.00,,,0.00,Wunderground v.1.15,2013-07-12 10:42:00,
2013-07-12 06:47:00,66.1,66.1,29.95,SW,214,1.0,2.0,100,0.00,,,0.00,Wunderground v.1.15,2013-07-12 10:47:00,
2013-07-12 06:52:00,66.1,66.1,29.95,SW,214,1.0,2.0,100,0.00,,,0.00,Wunderground v.1.15,2013-07-12 10:52:00,
2013-07-12 06:58:00,66.1,66.1,29.95,SW,214,0.0,2.0,100,0.00,,,0.00,Wunderground v.1.15,2013-07-12 10:58:00,
2013-07-12 07:03:00,66.0,66.0,29.95,SW,214,0.0,2.0,100,0.00,,,0.01,Wunderground v.1.15,2013-07-12 11:03:00,
2013-07-12 07:08:00,66.0,66.0,29.95,SW,214,0.0,2.0,100,0.00,,,0.01,Wunderground v.1.15,2013-07-12 11:08:00,
2013-07-12 07:13:00,66.1,66.1,29.95,SW,214,0.0,2.0,100,0.00,,,0.01,Wunderground v.1.15,2013-07-12 11:13:00,
2013-07-12 07:16:00,66.1,66.1,29.96,SW,214,0.0,2.0,100,0.00,,,0.01,Wunderground v.1.15,2013-07-12 11:16:00,
2013-07-12 07:22:00,66.1,66.1,29.96,SW,214,0.0,2.0,100,0.00,,,0.01,Wunderground v.1.15,2013-07-12 11:22:00,
2013-07-12 07:27:00,66.2,66.2,29.96,SW,214,0.0,2.0,100,0.00,,,0.01,Wunderground v.1.15,2013-07-12 11:27:00,
2013-07-12 07:32:00,66.2,66.2,29.96,SW,214,0.0,2.0,100,0.00,,,0.01,Wunderground v.1.15,2013-07-12 11:32:00,
2013-07-12 07:37:00,66.2,66.2,29.96,SW,214,0.0,2.0,100,0.00,,,0.01,Wunderground v.1.15,2013-07-12 11:37:00,
2013-07-12 07:42:00,66.3,66.3,29.96,SW,214,0.0,2.0,100,0.00,,,0.01,Wunderground v.1.15,2013-07-12 11:42:00,
2013-07-12 07:47:00,66.3,66.3,29.97,SW,214,0.0,2.0,100,0.00,,,0.01,Wunderground v.1.15,2013-07-12 11:47:00,
2013-07-12 07:53:00,66.3,66.3,29.97,SW,214,1.0,2.0,100,0.00,,,0.01,Wunderground v.1.15,2013-07-12 11:53:00,
2013-07-12 07:58:00,66.3,66.3,29.97,SW,214,1.0,2.0,100,0.00,,,0.01,Wunderground v.1.15,2013-07-12 11:58:00,
2013-07-12 08:03:00,66.5,66.5,29.97,SW,214,0.0,2.0,100,0.00,,,0.01,Wunderground v.1.15,2013-07-12 12:03:00,
2013-07-12 08:08:00,66.7,66.7,29.98,SW,214,0.0,2.0,100,0.00,,,0.01,Wunderground v.1.15,2013-07-12 12:08:00,
2013-07-12 08:13:00,66.8,66.8,29.98,SW,214,0.0,2.0,100,0.00,,,0.01,Wunderground v.1.15,2013-07-12 12:13:00,
2013-07-12 08:19:00,67.1,67.1,29.98,SW,214,0.0,2.0,100,0.00,,,0.01,Wunderground v.1.15,2013-07-12 12:19:00,
2013-07-12 08:24:00,67.0,67.0,29.98,SW,214,0.0,2.0,100,0.00,,,0.01,Wunderground v.1.15,2013-07-12 12:24:00,
2013-07-12 08:29:00,67.1,67.1,29.98,SW,214,0.0,2.0,100,0.00,,,0.01,Wunderground v.1.15,2013-07-12 12:29:00,
2013-07-12 08:34:00,67.1,67.1,29.98,SSW,213,1.0,4.0,100,0.00,,,0.01,Wunderground v.1.15,2013-07-12 12:34:00,
2013-07-12 08:39:00,67.2,67.2,29.98,SSW,212,2.0,4.0,100,0.00,,,0.01,Wunderground v.1.15,2013-07-12 12:39:00,
2013-07-12 08:44:00,67.3,67.3,29.98,SSW,212,1.0,2.0,100,0.00,,,0.01,Wunderground v.1.15,2013-07-12 12:44:00,
2013-07-12 08:49:00,67.4,67.4,29.98,SSW,212,1.0,2.0,100,0.00,,,0.01,Wunderground v.1.15,2013-07-12 12:49:00,
2013-07-12 08:55:00,67.6,67.6,29.98,SSW,212,1.0,2.0,100,0.00,,,0.01,Wunderground v.1.15,2013-07-12 12:55:00,
2013-07-12 09:00:00,68.2,68.2,29.98,SSW,212,0.0,2.0,100,0.00,,,0.01,Wunderground v.1.15,2013-07-12 13:00:00,
2013-07-12 09:05:00,68.4,68.1,29.99,SSW,212,1.0,3.0,99,0.00,,,0.01,Wunderground v.1.15,2013-07-12 13:05:00,
2013-07-12 09:10:00,68.7,68.4,29.99,SSW,212,1.0,2.0,99,0.00,,,0.01,Wunderground v.1.15,2013-07-12 13:10:00,
2013-07-12 09:15:00,69.2,68.3,29.98,ENE,67,1.0,4.0,97,0.00,,,0.01,Wunderground v.1.15,2013-07-12 13:15:00,
2013-07-12 09:20:00,69.6,68.1,29.98,NNE,19,2.0,3.0,95,0.00,,,0.01,Wunderground v.1.15,2013-07-12 13:20:00,
2013-07-12 09:26:00,69.7,67.6,29.98,NNE,13,2.0,3.0,93,0.00,,,0.01,Wunderground v.1.15,2013-07-12 13:26:00,
2013-07-12 09:31:00,70.3,68.2,29.98,NE,42,1.0,2.0,93,0.00,,,0.01,Wunderground v.1.15,2013-07-12 13:31:00,
2013-07-12 09:36:00,70.8,68.0,29.99,ENE,66,2.0,5.0,91,0.00,,,0.01,Wunderground v.1.15,2013-07-12 13:36:00,
2013-07-12 09:41:00,71.3,67.9,29.99,ENE,70,2.0,3.0,89,0.00,,,0.01,Wunderground v.1.15,2013-07-12 13:41:00,
2013-07-12 09:46:00,72.0,68.2,29.99,ENE,73,2.0,3.0,88,0.00,,,0.01,Wunderground v.1.15,2013-07-12 13:46:00,
2013-07-12 09:52:00,73.0,68.9,29.99,NNE,22,1.0,2.0,87,0.00,,,0.01,Wunderground v.1.15,2013-07-12 13:52:00,
2013-07-12 09:57:00,73.1,68.3,29.99,WNW,292,2.0,5.0,85,0.00,,,0.01,Wunderground v.1.15,2013-07-12 13:57:00,
2013-07-12 10:02:00,72.8,67.7,29.99,SSW,213,3.0,5.0,84,0.00,,,0.01,Wunderground v.1.15,2013-07-12 14:02:00,
2013-07-12 10:07:00,73.0,68.2,29.99,NW,311,3.0,5.0,85,0.00,,,0.01,Wunderground v.1.15,2013-07-12 14:07:00,
2013-07-12 10:12:00,73.3,67.8,29.99,WNW,299,3.0,3.0,83,0.00,,,0.01,Wunderground v.1.15,2013-07-12 14:12:00,
2013-07-12 10:18:00,73.6,67.8,29.99,NW,313,2.0,3.0,82,0.00,,,0.01,Wunderground v.1.15,2013-07-12 14:18:00,
2013-07-12 10:23:00,73.9,67.7,29.98,NW,313,1.0,2.0,81,0.00,,,0.01,Wunderground v.1.15,2013-07-12 14:23:00,
2013-07-12 10:28:00,74.2,68.0,29.99,SW,229,2.0,4.0,81,0.00,,,0.01,Wunderground v.1.15,2013-07-12 14:28:00,
2013-07-12 10:33:00,74.4,68.2,29.99,NW,317,3.0,5.0,81,0.00,,,0.01,Wunderground v.1.15,2013-07-12 14:33:00,
2013-07-12 10:38:00,74.5,67.9,29.99,WNW,290,2.0,5.0,80,0.00,,,0.01,Wunderground v.1.15,2013-07-12 14:38:00,
2013-07-12 10:43:00,74.7,68.5,29.99,WNW,290,1.0,2.0,81,0.00,,,0.01,Wunderground v.1.15,2013-07-12 14:43:00,
2013-07-12 10:49:00,75.0,68.4,29.99,NW,318,0.0,2.0,80,0.00,,,0.01,Wunderground v.1.15,2013-07-12 14:49:00,
2013-07-12 10:54:00,75.3,68.7,29.98,WNW,288,1.0,4.0,80,0.00,,,0.01,Wunderground v.1.15,2013-07-12 14:54:00,
2013-07-12 10:59:00,75.2,68.2,29.98,WSW,245,3.0,5.0,79,0.00,,,0.01,Wunderground v.1.15,2013-07-12 14:59:00,
2013-07-12 11:04:00,75.1,68.9,29.98,WSW,240,3.0,5.0,81,0.00,,,0.01,Wunderground v.1.15,2013-07-12 15:04:00,
2013-07-12 11:09:00,75.3,69.4,29.98,West,263,3.0,5.0,82,0.00,,,0.01,Wunderground v.1.15,2013-07-12 15:09:00,
2013-07-12 11:14:00,75.3,68.0,29.98,SW,236,3.0,6.0,78,0.00,,,0.01,Wunderground v.1.15,2013-07-12 15:14:00,
2013-07-12 11:20:00,75.7,68.4,29.98,South,172,2.0,2.0,78,0.00,,,0.01,Wunderground v.1.15,2013-07-12 15:20:00,
2013-07-12 11:25:00,75.9,69.3,29.99,SSE,168,2.0,2.0,80,0.00,,,0.01,Wunderground v.1.15,2013-07-12 15:25:00,
2013-07-12 11:31:00,75.5,68.9,29.99,ESE,106,2.0,5.0,80,0.00,,,0.01,Wunderground v.1.15,2013-07-12 15:31:00,
2013-07-12 11:36:00,75.2,69.0,29.99,SSE,149,2.0,5.0,81,0.00,,,0.01,Wunderground v.1.15,2013-07-12 15:36:00,
2013-07-12 11:41:00,75.3,68.0,29.99,SSW,194,2.0,2.0,78,0.00,,,0.01,Wunderground v.1.15,2013-07-12 15:41:00,
2013-07-12 11:46:00,76.4,69.4,29.99,WSW,258,1.0,2.0,79,0.00,,,0.01,Wunderground v.1.15,2013-07-12 15:46:00,
2013-07-12 11:52:00,76.8,68.7,29.99,NNW,336,2.0,4.0,76,0.00,,,0.01,Wunderground v.1.15,2013-07-12 15:52:00,
2013-07-12 11:58:00,76.4,67.9,29.98,SW,221,3.0,5.0,75,0.00,,,0.01,Wunderground v.1.15,2013-07-12 15:58:00,
2013-07-12 12:03:00,76.0,68.6,29.98,ESE,112,3.0,3.0,78,0.00,,,0.01,Wunderground v.1.15,2013-07-12 16:03:00,
2013-07-12 12:08:00,75.6,69.0,29.99,SSE,155,2.0,4.0,80,0.00,,,0.01,Wunderground v.1.15,2013-07-12 16:08:00,
2013-07-12 12:14:00,75.0,69.1,29.99,SSE,150,2.0,5.0,82,0.00,,,0.01,Wunderground v.1.15,2013-07-12 16:14:00,
2013-07-12 12:19:00,74.6,68.7,29.98,SSE,158,3.0,5.0,82,0.00,,,0.01,Wunderground v.1.15,2013-07-12 16:19:00,
2013-07-12 12:24:00,74.4,68.9,29.98,SSE,159,3.0,3.0,83,0.00,,,0.01,Wunderground v.1.15,2013-07-12 16:24:00,
2013-07-12 12:29:00,74.7,69.9,29.98,East,88,3.0,5.0,85,0.00,,,0.01,Wunderground v.1.15,2013-07-12 16:29:00,
2013-07-12 12:34:00,75.0,69.1,29.98,East,99,5.0,10.0,82,0.00,,,0.01,Wunderground v.1.15,2013-07-12 16:34:00,
2013-07-12 12:39:00,75.8,70.6,29.98,ESE,113,5.0,10.0,84,0.00,,,0.01,Wunderground v.1.15,2013-07-12 16:39:00,
2013-07-12 12:44:00,75.9,70.0,29.98,ESE,118,5.0,9.0,82,0.00,,,0.01,Wunderground v.1.15,2013-07-12 16:44:00,
2013-07-12 12:50:00,76.2,70.7,29.98,East,96,5.0,14.0,83,0.00,,,0.01,Wunderground v.1.15,2013-07-12 16:50:00,
2013-07-12 12:55:00,76.2,69.2,29.98,South,170,5.0,14.0,79,0.00,,,0.01,Wunderground v.1.15,2013-07-12 16:55:00,
2013-07-12 13:00:00,76.4,68.7,29.97,ESE,121,6.0,8.0,77,0.00,,,0.01,Wunderground v.1.15,2013-07-12 17:00:00,
2013-07-12 13:05:00,76.3,68.6,29.97,East,84,6.0,12.0,77,0.00,,,0.01,Wunderground v.1.15,2013-07-12 17:05:00,
2013-07-12 13:11:00,76.6,67.3,29.97,East,88,6.0,10.0,73,0.00,,,0.01,Wunderground v.1.15,2013-07-12 17:11:00,
2013-07-12 13:16:00,76.6,68.1,29.97,ENE,71,6.0,10.0,75,0.00,,,0.01,Wunderground v.1.15,2013-07-12 17:16:00,
2013-07-12 13:22:00,76.9,69.5,29.97,East,86,4.0,5.0,78,0.00,,,0.01,Wunderground v.1.15,2013-07-12 17:22:00,
2013-07-12 13:27:00,77.5,69.7,29.96,East,88,4.0,8.0,77,0.00,,,0.01,Wunderground v.1.15,2013-07-12 17:27:00,
2013-07-12 13:33:00,77.7,68.0,29.96,ESE,104,5.0,8.0,72,0.00,,,0.01,Wunderground v.1.15,2013-07-12 17:33:00,
2013-07-12 13:38:00,77.9,68.5,29.96,East,82,5.0,9.0,73,0.00,,,0.01,Wunderground v.1.15,2013-07-12 17:38:00,
2013-07-12 13:43:00,77.3,68.8,29.96,East,96,6.0,12.0,75,0.00,,,0.01,Wunderground v.1.15,2013-07-12 17:43:00,
2013-07-12 13:48:00,76.4,67.5,29.96,ESE,109,8.0,12.0,74,0.00,,,0.01,Wunderground v.1.15,2013-07-12 17:48:00,
2013-07-12 13:54:00,76.1,68.4,29.96,ESE,105,7.0,9.0,77,0.00,,,0.01,Wunderground v.1.15,2013-07-12 17:54:00,
2013-07-12 13:59:00,75.8,68.4,29.96,ESE,117,6.0,9.0,78,0.00,,,0.01,Wunderground v.1.15,2013-07-12 17:59:00,
2013-07-12 14:04:00,76.0,67.9,29.96,South,174,5.0,6.0,76,0.00,,,0.01,Wunderground v.1.15,2013-07-12 18:04:00,
2013-07-12 14:09:00,76.6,68.8,29.96,East,95,4.0,6.0,77,0.00,,,0.01,Wunderground v.1.15,2013-07-12 18:09:00,
2013-07-12 14:16:00,77.0,67.3,29.96,ESE,113,4.0,7.0,72,0.00,,,0.01,Wunderground v.1.15,2013-07-12 18:16:00,
2013-07-12 14:21:00,77.0,67.7,29.96,ESE,102,5.0,7.0,73,0.00,,,0.01,Wunderground v.1.15,2013-07-12 18:21:00,
2013-07-12 14:26:00,76.6,68.5,29.96,ESE,116,6.0,10.0,76,0.00,,,0.01,Wunderground v.1.15,2013-07-12 18:26:00,
2013-07-12 14:31:00,76.4,69.8,29.96,SSE,165,6.0,13.0,80,0.00,,,0.01,Wunderground v.1.15,2013-07-12 18:31:00,
2013-07-12 14:36:00,76.1,69.5,29.97,South,173,5.0,13.0,80,0.00,,,0.01,Wunderground v.1.15,2013-07-12 18:36:00,
2013-07-12 14:41:00,75.8,69.2,29.97,SSE,155,6.0,8.0,80,0.00,,,0.01,Wunderground v.1.15,2013-07-12 18:41:00,
2013-07-12 14:47:00,75.6,69.4,29.96,ESE,113,5.0,8.0,81,0.00,,,0.01,Wunderground v.1.15,2013-07-12 18:47:00,
2013-07-12 14:52:00,75.7,69.1,29.96,ENE,78,4.0,5.0,80,0.00,,,0.01,Wunderground v.1.15,2013-07-12 18:52:00,
2013-07-12 14:57:00,75.7,69.5,29.96,SSE,150,4.0,5.0,81,0.00,,,0.01,Wunderground v.1.15,2013-07-12 18:57:00,
2013-07-12 15:02:00,76.1,69.5,29.97,ESE,106,4.0,5.0,80,0.00,,,0.01,Wunderground v.1.15,2013-07-12 19:02:00,
2013-07-12 15:08:00,76.2,69.2,29.97,ESE,121,4.0,7.0,79,0.00,,,0.01,Wunderground v.1.15,2013-07-12 19:08:00,
2013-07-12 15:13:00,76.1,69.1,29.96,East,80,4.0,7.0,79,0.00,,,0.01,Wunderground v.1.15,2013-07-12 19:13:00,
2013-07-12 15:18:00,75.8,68.8,29.96,ESE,123,4.0,8.0,79,0.00,,,0.01,Wunderground v.1.15,2013-07-12 19:18:00,
2013-07-12 15:23:00,75.7,68.7,29.96,ESE,107,4.0,4.0,79,0.00,,,0.01,Wunderground v.1.15,2013-07-12 19:23:00,
2013-07-12 15:29:00,75.7,69.5,29.97,East,95,3.0,4.0,81,0.00,,,0.01,Wunderground v.1.15,2013-07-12 19:29:00,
2013-07-12 15:34:00,75.7,69.8,29.97,NE,44,2.0,4.0,82,0.00,,,0.01,Wunderground v.1.15,2013-07-12 19:34:00,
2013-07-12 15:39:00,75.6,69.7,29.95,NE,53,2.0,7.0,82,0.00,,,0.01,Wunderground v.1.15,2013-07-12 19:39:00,
2013-07-12 15:44:00,75.0,69.5,29.96,East,92,3.0,5.0,83,0.00,,,0.01,Wunderground v.1.15,2013-07-12 19:44:00,
2013-07-12 15:49:00,73.9,69.4,29.96,WNW,293,4.0,6.0,86,0.00,,,0.02,Wunderground v.1.15,2013-07-12 19:49:00,
2013-07-12 15:55:00,73.1,69.7,29.96,WNW,292,3.0,3.0,89,0.00,,,0.02,Wunderground v.1.15,2013-07-12 19:55:00,
2013-07-12 16:00:00,72.8,70.0,29.97,WNW,289,1.0,1.0,91,0.00,,,0.02,Wunderground v.1.15,2013-07-12 20:00:00,
2013-07-12 16:05:00,72.5,69.4,29.96,WNW,289,1.0,2.0,90,0.00,,,0.02,Wunderground v.1.15,2013-07-12 20:05:00,
2013-07-12 16:11:00,72.2,69.1,29.95,WNW,289,1.0,2.0,90,0.00,,,0.02,Wunderground v.1.15,2013-07-12 20:11:00,
2013-07-12 16:16:00,72.2,69.4,29.95,West,269,1.0,2.0,91,0.00,,,0.02,Wunderground v.1.15,2013-07-12 20:16:00,
2013-07-12 16:22:00,72.5,70.7,29.95,West,277,0.0,2.0,94,0.00,,,0.02,Wunderground v.1.15,2013-07-12 20:22:00,
2013-07-12 16:27:00,72.7,70.6,29.95,NNW,331,1.0,2.0,93,0.00,,,0.02,Wunderground v.1.15,2013-07-12 20:27:00,
2013-07-12 16:32:00,72.8,70.3,29.95,NW,323,1.0,2.0,92,0.00,,,0.02,Wunderground v.1.15,2013-07-12 20:32:00,
2013-07-12 16:38:00,73.0,70.5,29.95,SW,217,1.0,4.0,92,0.00,,,0.02,Wunderground v.1.15,2013-07-12 20:38:00,
2013-07-12 16:44:00,73.1,70.3,29.95,SW,217,1.0,2.0,91,0.00,,,0.02,Wunderground v.1.15,2013-07-12 20:44:00,
2013-07-12 16:49:00,73.1,70.3,29.95,SSE,163,1.0,2.0,91,0.00,,,0.02,Wunderground v.1.15,2013-07-12 20:49:00,
2013-07-12 16:55:00,72.6,66.8,29.96,ESE,116,3.0,21.0,82,0.00,,,0.02,Wunderground v.1.15,2013-07-12 20:55:00,
2013-07-12 17:01:00,69.2,63.8,29.97,NE,55,10.0,11.0,83,0.00,,,0.02,Wunderground v.1.15,2013-07-12 21:01:00,
2013-07-12 17:06:00,68.6,62.9,29.97,NNE,32,11.0,13.0,82,0.00,,,0.02,Wunderground v.1.15,2013-07-12 21:06:00,
2013-07-12 17:11:00,68.1,62.7,29.97,ENE,57,9.0,10.0,83,0.00,,,0.02,Wunderground v.1.15,2013-07-12 21:11:00,
2013-07-12 17:18:00,67.6,62.3,29.97,NE,44,9.0,11.0,83,0.00,,,0.02,Wunderground v.1.15,2013-07-12 21:18:00,
2013-07-12 17:24:00,67.4,62.1,29.97,ENE,78,7.0,8.0,83,0.00,,,0.02,Wunderground v.1.15,2013-07-12 21:24:00,
2013-07-12 17:30:00,67.0,61.0,29.97,NNE,29,5.0,7.0,81,0.00,,,0.02,Wunderground v.1.15,2013-07-12 21:30:00,
2013-07-12 17:36:00,66.7,61.0,29.98,East,88,5.0,7.0,82,0.00,,,0.02,Wunderground v.1.15,2013-07-12 21:36:00,
2013-07-12 17:41:00,66.4,60.4,29.99,ENE,72,5.0,6.0,81,0.00,,,0.02,Wunderground v.1.15,2013-07-12 21:41:00,
2013-07-12 17:47:00,66.1,60.4,30.00,East,93,4.0,7.0,82,0.00,,,0.02,Wunderground v.1.15,2013-07-12 21:47:00,
2013-07-12 17:52:00,65.9,60.6,30.00,ESE,105,3.0,3.0,83,0.00,,,0.02,Wunderground v.1.15,2013-07-12 21:52:00,
2013-07-12 17:58:00,65.6,61.0,30.02,NNW,343,2.0,4.0,85,0.00,,,0.02,Wunderground v.1.15,2013-07-12 21:58:00,
2013-07-12 18:03:00,65.0,61.4,30.02,ENE,59,4.0,5.0,88,0.47,,,0.06,Wunderground v.1.15,2013-07-12 22:03:00,
2013-07-12 18:08:00,64.5,61.2,30.01,NE,42,2.0,5.0,89,0.68,,,0.12,Wunderground v.1.15,2013-07-12 22:08:00,
2013-07-12 18:14:00,63.9,61.2,30.00,East,98,2.0,5.0,91,0.36,,,0.14,Wunderground v.1.15,2013-07-12 22:14:00,
2013-07-12 18:19:00,63.3,61.2,30.00,East,84,4.0,5.0,93,0.51,,,0.20,Wunderground v.1.15,2013-07-12 22:19:00,
2013-07-12 18:26:00,62.9,61.4,30.01,SE,134,3.0,4.0,95,0.16,,,0.21,Wunderground v.1.15,2013-07-12 22:26:00,
2013-07-12 18:31:00,62.7,61.2,30.00,ESE,105,2.0,4.0,95,0.07,,,0.21,Wunderground v.1.15,2013-07-12 22:31:00,
2013-07-12 18:36:00,62.5,61.0,30.00,ESE,111,2.0,4.0,95,0.20,,,0.23,Wunderground v.1.15,2013-07-12 22:36:00,
2013-07-12 18:41:00,62.5,61.0,30.00,East,79,3.0,3.0,95,0.12,,,0.23,Wunderground v.1.15,2013-07-12 22:41:00,
2013-07-12 18:47:00,62.8,61.3,30.00,NW,321,3.0,4.0,95,0.10,,,0.24,Wunderground v.1.15,2013-07-12 22:47:00,
2013-07-12 18:52:00,63.0,61.8,30.01,NW,321,2.0,4.0,96,0.06,,,0.24,Wunderground v.1.15,2013-07-12 22:52:00,
2013-07-12 18:57:00,63.1,62.2,30.01,NW,321,1.0,4.0,97,0.04,,,0.24,Wunderground v.1.15,2013-07-12 22:57:00,
2013-07-12 19:02:00,63.2,62.0,30.01,NW,321,0.0,2.0,96,0.00,,,0.24,Wunderground v.1.15,2013-07-12 23:02:00,
2013-07-12 19:08:00,63.4,62.2,30.01,NNW,333,1.0,4.0,96,0.00,,,0.24,Wunderground v.1.15,2013-07-12 23:08:00,
2013-07-12 19:13:00,63.4,62.2,30.01,ENE,71,1.0,2.0,96,0.00,,,0.24,Wunderground v.1.15,2013-07-12 23:13:00,
2013-07-12 19:18:00,63.5,62.6,30.01,ENE,71,2.0,2.0,97,0.00,,,0.24,Wunderground v.1.15,2013-07-12 23:18:00,
2013-07-12 19:23:00,63.7,62.8,30.01,WNW,296,1.0,4.0,97,0.00,,,0.24,Wunderground v.1.15,2013-07-12 23:23:00,
2013-07-12 19:28:00,63.7,62.8,30.01,WNW,296,1.0,4.0,97,0.00,,,0.24,Wunderground v.1.15,2013-07-12 23:28:00,
2013-07-12 19:34:00,63.8,62.9,30.02,SSE,161,1.0,2.0,97,0.00,,,0.24,Wunderground v.1.15,2013-07-12 23:34:00,
2013-07-12 19:39:00,63.9,63.0,30.02,SSE,164,1.0,2.0,97,0.00,,,0.24,Wunderground v.1.15,2013-07-12 23:39:00,
2013-07-12 19:45:00,63.9,63.0,30.02,SSE,165,1.0,2.0,97,0.00,,,0.24,Wunderground v.1.15,2013-07-12 23:45:00,
2013-07-12 19:50:00,64.0,63.1,30.02,SSE,166,1.0,2.0,97,0.00,,,0.24,Wunderground v.1.15,2013-07-12 23:50:00,
2013-07-12 19:55:00,64.1,63.2,30.02,South,190,2.0,3.0,97,0.00,,,0.24,Wunderground v.1.15,2013-07-12 23:55:00,
2013-07-12 20:01:00,64.1,63.2,30.02,South,191,1.0,2.0,97,0.00,,,0.24,Wunderground v.1.15,2013-07-13 00:01:00,
2013-07-12 20:07:00,64.2,63.3,30.02,SSW,210,1.0,2.0,97,0.00,,,0.24,Wunderground v.1.15,2013-07-13 00:07:00,
2013-07-12 20:13:00,64.1,63.2,30.02,SSW,210,1.0,2.0,97,0.00,,,0.24,Wunderground v.1.15,2013-07-13 00:13:00,
2013-07-12 20:18:00,64.1,63.2,30.02,SSW,210,1.0,2.0,97,0.00,,,0.24,Wunderground v.1.15,2013-07-13 00:18:00,
2013-07-12 20:23:00,64.1,63.2,30.02,SSW,210,1.0,2.0,97,0.00,,,0.24,Wunderground v.1.15,2013-07-13 00:23:00,
2013-07-12 20:28:00,64.1,63.2,30.03,SSW,210,1.0,2.0,97,0.00,,,0.24,Wunderground v.1.15,2013-07-13 00:28:00,
2013-07-12 20:34:00,64.3,63.7,30.03,SSW,210,0.0,2.0,98,0.00,,,0.24,Wunderground v.1.15,2013-07-13 00:34:00,
2013-07-12 20:39:00,64.3,63.7,30.03,SSW,210,0.0,4.0,98,0.00,,,0.24,Wunderground v.1.15,2013-07-13 00:39:00,
2013-07-12 20:44:00,64.1,63.2,30.03,SSW,210,1.0,2.0,97,0.00,,,0.24,Wunderground v.1.15,2013-07-13 00:44:00,
2013-07-12 20:49:00,64.0,63.1,30.02,SSW,209,1.0,5.0,97,0.00,,,0.24,Wunderground v.1.15,2013-07-13 00:49:00,
2013-07-12 20:54:00,64.0,63.1,30.02,SSW,209,1.0,2.0,97,0.00,,,0.24,Wunderground v.1.15,2013-07-13 00:54:00,
2013-07-12 20:59:00,64.0,63.1,30.02,SSW,209,1.0,2.0,97,0.00,,,0.24,Wunderground v.1.15,2013-07-13 00:59:00,
2013-07-12 21:05:00,64.0,63.4,30.02,SSW,209,1.0,2.0,98,0.00,,,0.24,Wunderground v.1.15,2013-07-13 01:05:00,
2013-07-12 21:11:00,63.9,63.3,30.02,ESE,122,1.0,2.0,98,0.00,,,0.24,Wunderground v.1.15,2013-07-13 01:11:00,
2013-07-12 21:16:00,63.8,63.2,30.02,ESE,122,1.0,2.0,98,0.00,,,0.24,Wunderground v.1.15,2013-07-13 01:16:00,
2013-07-12 21:22:00,63.7,63.1,30.02,ESE,122,0.0,2.0,98,0.00,,,0.24,Wunderground v.1.15,2013-07-13 01:22:00,
2013-07-12 21:28:00,63.7,63.1,30.03,ESE,122,0.0,2.0,98,0.00,,,0.24,Wunderground v.1.15,2013-07-13 01:28:00,
2013-07-12 21:33:00,63.7,63.1,30.02,ESE,122,0.0,2.0,98,0.00,,,0.24,Wunderground v.1.15,2013-07-13 01:33:00,
2013-07-12 21:38:00,63.8,63.5,30.02,ESE,121,0.0,2.0,99,0.00,,,0.24,Wunderground v.1.15,2013-07-13 01:38:00,
2013-07-12 21:43:00,63.8,63.2,30.03,ESE,121,1.0,2.0,98,0.00,,,0.24,Wunderground v.1.15,2013-07-13 01:43:00,
2013-07-12 21:49:00,63.8,63.5,30.04,ESE,121,0.0,2.0,99,0.00,,,0.24,Wunderground v.1.15,2013-07-13 01:49:00,
2013-07-12 21:55:00,63.7,63.4,30.04,ESE,115,1.0,4.0,99,0.00,,,0.24,Wunderground v.1.15,2013-07-13 01:55:00,
2013-07-12 22:02:00,63.8,63.5,30.05,ESE,115,2.0,2.0,99,0.00,,,0.24,Wunderground v.1.15,2013-07-13 02:02:00,
2013-07-12 22:08:00,63.7,63.4,30.05,ESE,115,0.0,2.0,99,0.00,,,0.24,Wunderground v.1.15,2013-07-13 02:08:00,
2013-07-12 22:13:00,63.7,63.4,30.05,ESE,115,0.0,2.0,99,0.00,,,0.24,Wunderground v.1.15,2013-07-13 02:13:00,
2013-07-12 22:19:00,63.8,63.5,30.06,ESE,115,0.0,2.0,99,0.00,,,0.24,Wunderground v.1.15,2013-07-13 02:19:00,
2013-07-12 22:25:00,63.8,63.5,30.05,ESE,115,0.0,2.0,99,0.00,,,0.24,Wunderground v.1.15,2013-07-13 02:25:00,
2013-07-12 22:30:00,63.9,63.6,30.06,ESE,115,0.0,2.0,99,0.00,,,0.24,Wunderground v.1.15,2013-07-13 02:30:00,
2013-07-12 22:35:00,63.8,63.5,30.06,ESE,115,0.0,4.0,99,0.00,,,0.24,Wunderground v.1.15,2013-07-13 02:35:00,
2013-07-12 22:40:00,64.2,63.9,30.06,ESE,121,2.0,9.0,99,0.00,,,0.24,Wunderground v.1.15,2013-07-13 02:40:00,
2013-07-12 22:46:00,65.8,65.2,30.06,ESE,118,6.0,12.0,98,0.00,,,0.24,Wunderground v.1.15,2013-07-13 02:46:00,
2013-07-12 22:51:00,66.4,65.5,30.06,SE,130,6.0,7.0,97,0.00,,,0.24,Wunderground v.1.15,2013-07-13 02:51:00,
2013-07-12 22:57:00,66.7,65.5,30.06,ESE,120,5.0,10.0,96,0.00,,,0.24,Wunderground v.1.15,2013-07-13 02:57:00,
2013-07-12 23:02:00,67.0,65.5,30.06,ENE,70,7.0,7.0,95,0.00,,,0.24,Wunderground v.1.15,2013-07-13 03:02:00,
2013-07-12 23:07:00,67.2,65.1,30.06,East,87,10.0,16.0,93,0.00,,,0.24,Wunderground v.1.15,2013-07-13 03:07:00,
2013-07-12 23:12:00,67.0,64.9,30.07,NE,36,11.0,14.0,93,0.00,,,0.24,Wunderground v.1.15,2013-07-13 03:12:00,
2013-07-12 23:17:00,65.6,62.6,30.07,NE,50,9.0,14.0,90,0.00,,,0.24,Wunderground v.1.15,2013-07-13 03:17:00,
2013-07-12 23:23:00,63.9,62.1,30.07,NE,44,9.0,13.0,94,0.00,,,0.25,Wunderground v.1.15,2013-07-13 03:23:00,
2013-07-12 23:29:00,62.9,61.4,30.07,ENE,65,9.0,15.0,95,0.11,,,0.26,Wunderground v.1.15,2013-07-13 03:29:00,
2013-07-12 23:34:00,62.6,61.4,30.07,NNW,335,9.0,11.0,96,0.06,,,0.26,Wunderground v.1.15,2013-07-13 03:34:00,
2013-07-12 23:40:00,62.4,61.5,30.07,ENE,59,7.0,7.0,97,0.04,,,0.26,Wunderground v.1.15,2013-07-13 03:40:00,
2013-07-12 23:45:00,62.3,61.1,30.07,North,5,5.0,8.0,96,0.00,,,0.27,Wunderground v.1.15,2013-07-13 03:45:00,
2013-07-12 23:51:00,62.1,61.2,30.08,ENE,57,5.0,5.0,97,0.00,,,0.27,Wunderground v.1.15,2013-07-13 03:51:00,
2013-07-12 23:57:00,62.0,61.1,30.08,ENE,62,5.0,10.0,97,0.00,,,0.27,Wunderground v.1.15,2013-07-13 03:57:00,